Clare, Iowa
Current Conditions -  °F | °C
As of 10:55 PM on Thursday 30 Oct 2014 (Local Time) from KFOD Reporting Station
Overcast Overcast  
Wind Chill: 34°   Ceiling: 3400
Heat Index: 41°   Visibility: 10mi
Dew Point: 28°   Wind: 13mph
Humidity: 61%   Direction: 350°N
Pressure: 30.3"   Gusts: 21mph
Location:  42.59°N, 94.35°W
Report Text: KFOD 310355Z AUTO 35011G18KT 10SM OVC034 05/M02 A3030 RMK AO1
Loading
Personal Weather Stations






























Interactive Weather Map
Tropical Storm Tracking
New forecast layout! Learn more

10-Day Weather Forecast

Advertisements
Track Severe Weather on mobile